Time;durP1;ratioP1;P1;durP2;ratioP2;P2;SDS_P1;SDS_P2;PMS_P1;PMS_P2;Temp;Humidity;BMP_temperature;BMP_pressure;BME280_temperature;BME280_humidity;BME280_pressure;Samples;Min_cycle;Max_cycle;Signal;HPM_P1;HPM_P2
2022/09/17 00:01:23;;;;;;;4.50;2.00;;;10.90;77.80;;;;;;4984679;28;20042;-76
2022/09/17 00:03:51;;;;;;;3.28;1.85;;;10.90;78.00;;;;;;4970624;28;20042;-76
2022/09/17 00:06:16;;;;;;;3.58;1.95;;;10.90;78.00;;;;;;4983677;28;20517;-75
2022/09/17 00:08:42;;;;;;;7.43;1.83;;;10.90;78.10;;;;;;4968281;28;20121;-76
2022/09/17 00:11:09;;;;;;;2.67;1.90;;;10.90;78.10;;;;;;4970126;28;20165;-75
2022/09/17 00:13:35;;;;;;;3.40;1.67;;;10.90;78.20;;;;;;4968432;28;20092;-76
2022/09/17 00:16:00;;;;;;;4.45;1.73;;;10.90;78.20;;;;;;4963356;28;20050;-75
2022/09/17 00:18:26;;;;;;;2.90;1.98;;;10.90;78.20;;;;;;4968419;28;20526;-75
2022/09/17 00:20:52;;;;;;;2.70;1.20;;;10.90;78.20;;;;;;4968351;28;20732;-76
2022/09/17 00:23:17;;;;;;;5.47;1.42;;;10.90;78.30;;;;;;4986484;28;20039;-75
2022/09/17 00:25:44;;;;;;;3.83;1.60;;;10.80;78.30;;;;;;4965215;28;20046;-75
2022/09/17 00:28:10;;;;;;;2.65;1.60;;;10.80;78.40;;;;;;4967335;28;20057;-76
2022/09/17 00:30:41;;;;;;;3.03;1.40;;;10.90;78.50;;;;;;4985389;28;20054;-76
2022/09/17 00:33:07;;;;;;;3.85;1.80;;;10.80;78.50;;;;;;4969278;28;20117;-77
2022/09/17 00:35:32;;;;;;;2.72;1.30;;;10.80;78.50;;;;;;4986519;28;20145;-74
2022/09/17 00:37:58;;;;;;;2.92;1.50;;;10.80;79.30;;;;;;4953387;28;20042;-77
2022/09/17 00:40:23;;;;;;;2.15;1.42;;;10.80;78.50;;;;;;4979184;28;20407;-77
2022/09/17 00:42:52;;;;;;;2.35;1.35;;;10.80;78.60;;;;;;4984027;28;20419;-77
2022/09/17 00:45:17;;;;;;;2.10;1.35;;;10.80;78.70;;;;;;4955714;28;20034;-77
2022/09/17 00:47:59;;;;;;;3.90;1.50;;;10.90;78.80;;;;;;4983184;28;20073;-77
2022/09/17 00:50:28;;;;;;;5.93;1.73;;;10.90;79.10;;;;;;4966917;28;20038;-77
2022/09/17 00:53:01;;;;;;;2.97;1.67;;;10.90;78.80;;;;;;4983949;28;20041;-77
2022/09/17 00:55:31;;;;;;;1.85;1.45;;;10.90;78.90;;;;;;4968054;28;20038;-77
2022/09/17 00:57:58;;;;;;;1.80;1.10;;;10.90;78.90;;;;;;4985319;28;20036;-76
2022/09/17 01:00:24;;;;;;;3.20;1.90;;;10.90;78.90;;;;;;4983280;28;20035;-77
2022/09/17 01:02:52;;;;;;;4.15;1.80;;;10.90;78.90;;;;;;4950628;28;20046;-76
2022/09/17 01:05:18;;;;;;;5.15;1.90;;;10.90;78.90;;;;;;4981598;28;20022;-78
2022/09/17 01:08:06;;;;;;;4.70;1.58;;;10.80;78.90;;;;;;4991029;28;20042;-78
2022/09/17 01:10:41;;;;;;;4.65;1.80;;;10.80;79.10;;;;;;4988224;28;20121;-77
2022/09/17 01:13:37;;;;;;;3.20;1.63;;;10.80;79.20;;;;;;4983508;28;20042;-77
2022/09/17 01:16:09;;;;;;;4.20;2.15;;;10.80;79.40;;;;;;4995809;28;20038;-77
2022/09/17 01:18:56;;;;;;;3.15;1.48;;;10.80;79.20;;;;;;4986087;28;20073;-76
2022/09/17 01:21:35;;;;;;;4.10;1.65;;;10.80;79.20;;;;;;4986792;28;20065;-77
2022/09/17 01:24:10;;;;;;;5.38;1.95;;;10.80;79.30;;;;;;4989027;28;20109;-77
2022/09/17 01:27:14;;;;;;;3.20;1.73;;;10.80;79.20;;;;;;5002884;28;20042;-76
2022/09/17 01:29:54;;;;;;;7.72;1.80;;;10.80;79.30;;;;;;4964060;28;20478;-77
2022/09/17 01:32:32;;;;;;;3.25;1.50;;;10.80;79.20;;;;;;4961090;28;20043;-77
2022/09/17 01:35:07;;;;;;;4.40;1.60;;;10.90;79.50;;;;;;4939435;28;20811;-77
2022/09/17 01:37:40;;;;;;;3.55;1.90;;;10.90;79.30;;;;;;4958694;28;20038;-77
2022/09/17 01:40:17;;;;;;;4.53;1.65;;;10.90;79.30;;;;;;4916571;28;20046;-77
2022/09/17 01:42:58;;;;;;;4.13;1.77;;;10.90;79.40;;;;;;4934834;28;20035;-77
2022/09/17 01:45:29;;;;;;;;;;;10.90;79.60;;;;;;4944233;28;20050;-77
2022/09/17 01:48:16;;;;;;;8.60;1.75;;;10.90;79.10;;;;;;4944805;28;19945;-79
2022/09/17 01:50:49;;;;;;;2.75;1.65;;;11.00;79.30;;;;;;4947005;28;20503;-76
2022/09/17 01:53:15;;;;;;;2.97;1.60;;;11.00;79.20;;;;;;4944051;28;20035;-77
2022/09/17 01:55:40;;;;;;;4.25;1.42;;;10.90;79.20;;;;;;4961788;28;20527;-77
2022/09/17 01:58:15;;;;;;;2.63;1.60;;;10.90;79.20;;;;;;4929952;28;20046;-77
2022/09/17 02:00:44;;;;;;;3.40;1.98;;;10.90;79.40;;;;;;4959244;28;20046;-77
2022/09/17 02:03:37;;;;;;;6.75;1.67;;;10.90;79.20;;;;;;4951115;28;20684;-77
2022/09/17 02:06:11;;;;;;;6.85;1.80;;;10.90;79.40;;;;;;4978561;28;20057;-78
2022/09/17 02:08:57;;;;;;;2.92;1.60;;;10.90;79.40;;;;;;4988882;28;20043;-77
2022/09/17 02:11:23;;;;;;;6.18;1.40;;;10.90;79.60;;;;;;4967526;28;20050;-77
2022/09/17 02:14:17;;;;;;;5.30;1.50;;;10.90;79.40;;;;;;4963805;28;20096;-78
2022/09/17 02:16:47;;;;;;;5.47;1.48;;;10.80;79.50;;;;;;4977781;28;20038;-77
2022/09/17 02:19:28;;;;;;;5.25;1.98;;;10.80;79.40;;;;;;4981127;28;20042;-77
2022/09/17 02:22:02;;;;;;;4.28;1.27;;;10.80;79.60;;;;;;4982936;28;20030;-77
2022/09/17 02:24:41;;;;;;;2.88;1.17;;;10.80;79.60;;;;;;4982691;28;20586;-77
2022/09/17 02:27:25;;;;;;;5.15;1.23;;;10.80;79.80;;;;;;4970254;28;20152;-76
2022/09/17 02:29:51;;;;;;;4.03;1.30;;;10.80;79.70;;;;;;4955196;28;20038;-76
2022/09/17 02:32:16;;;;;;;2.47;1.50;;;10.80;79.60;;;;;;4963097;28;20050;-77
2022/09/17 02:34:42;;;;;;;2.35;1.67;;;10.80;79.60;;;;;;4981017;28;20065;-77
2022/09/17 02:37:07;;;;;;;5.75;1.35;;;10.90;79.70;;;;;;4986319;28;20411;-76
2022/09/17 02:39:33;;;;;;;3.05;1.30;;;10.80;79.80;;;;;;4981172;28;20050;-77
2022/09/17 02:42:28;;;;;;;6.07;1.45;;;10.80;79.80;;;;;;4967068;28;20560;-77
2022/09/17 02:45:22;;;;;;;2.33;1.15;;;10.90;80.00;;;;;;4979385;28;20080;-77
2022/09/17 02:48:16;;;;;;;3.65;1.40;;;10.90;80.00;;;;;;4982156;28;20034;-76
2022/09/17 02:50:53;;;;;;;6.10;1.25;;;10.90;80.00;;;;;;4986909;28;20042;-77
2022/09/17 02:54:00;;;;;;;5.72;1.13;;;10.90;79.70;;;;;;4979057;28;20050;-77
2022/09/17 02:56:39;;;;;;;3.55;1.13;;;10.90;80.00;;;;;;4939554;28;20038;-78
2022/09/17 02:59:29;;;;;;;2.85;1.10;;;10.90;79.70;;;;;;4946122;28;20054;-78
2022/09/17 03:02:01;;;;;;;4.13;1.40;;;10.90;79.90;;;;;;4974182;28;20049;-77
2022/09/17 03:04:28;;;;;;;4.30;1.00;;;10.90;79.80;;;;;;4972483;28;20038;-77
2022/09/17 03:06:53;;;;;;;4.85;1.70;;;10.90;79.80;;;;;;4989602;28;20027;-78
2022/09/17 03:09:19;;;;;;;2.70;1.35;;;10.90;79.80;;;;;;4974647;28;20198;-78
2022/09/17 03:11:44;;;;;;;4.25;1.10;;;11.00;80.00;;;;;;4989958;28;20053;-77
2022/09/17 03:14:10;;;;;;;2.38;1.35;;;11.00;79.90;;;;;;4993089;28;20031;-77
2022/09/17 03:16:35;;;;;;;2.90;1.15;;;11.00;80.00;;;;;;4990226;28;20058;-78
2022/09/17 03:19:01;;;;;;;3.70;1.02;;;11.00;80.00;;;;;;4993513;28;20042;-77
2022/09/17 03:21:26;;;;;;;3.03;1.35;;;11.00;80.00;;;;;;4990777;28;20049;-78
2022/09/17 03:23:52;;;;;;;3.30;1.30;;;11.10;80.00;;;;;;4987341;28;20035;-78
2022/09/17 03:26:18;;;;;;;3.65;0.95;;;11.10;80.00;;;;;;4992854;28;20153;-77
2022/09/17 03:28:43;;;;;;;3.03;1.10;;;11.10;80.10;;;;;;4978726;28;20038;-76
2022/09/17 03:31:09;;;;;;;3.65;1.20;;;11.10;80.10;;;;;;4987687;28;20050;-77
2022/09/17 03:33:34;;;;;;;3.53;1.10;;;11.10;80.20;;;;;;4974386;28;20035;-77
2022/09/17 03:36:00;;;;;;;6.50;1.45;;;11.10;80.30;;;;;;4978764;28;20095;-76
2022/09/17 03:38:25;;;;;;;5.25;2.00;;;11.10;80.30;;;;;;4980174;28;20113;-76
2022/09/17 03:40:58;;;;;;;3.67;1.35;;;11.10;80.50;;;;;;4978121;28;20027;-76
2022/09/17 03:43:24;;;;;;;3.33;1.40;;;11.10;80.80;;;;;;4973267;28;20700;-76
2022/09/17 03:45:49;;;;;;;3.90;1.00;;;11.10;80.70;;;;;;4970136;28;20046;-76
2022/09/17 03:48:15;;;;;;;1.08;0.90;;;11.10;80.80;;;;;;4997871;28;20027;-78
2022/09/17 03:50:40;;;;;;;3.38;1.10;;;11.00;80.80;;;;;;4982509;28;20042;-78
2022/09/17 03:53:06;;;;;;;3.53;1.30;;;11.00;80.80;;;;;;4999577;28;20045;-78
2022/09/17 03:55:31;;;;;;;3.10;1.20;;;11.10;81.00;;;;;;5006879;28;20057;-77
2022/09/17 03:57:57;;;;;;;5.05;1.30;;;11.00;81.20;;;;;;4984386;28;20030;-77
2022/09/17 04:00:23;;;;;;;4.25;1.80;;;11.00;81.10;;;;;;4986335;28;20120;-77
2022/09/17 04:02:49;;;;;;;2.80;0.90;;;11.00;81.30;;;;;;5002164;28;20019;-77
2022/09/17 04:05:15;;;;;;;2.13;0.88;;;11.00;81.50;;;;;;4973690;28;20105;-78
2022/09/17 04:07:40;;;;;;;4.40;1.02;;;11.00;81.60;;;;;;5014766;28;20050;-78
2022/09/17 04:10:06;;;;;;;2.53;1.27;;;11.00;81.60;;;;;;5009907;28;20030;-76
2022/09/17 04:12:32;;;;;;;3.72;1.15;;;11.00;81.80;;;;;;4999932;28;20039;-77
2022/09/17 04:14:57;;;;;;;3.90;1.20;;;11.00;81.80;;;;;;4998250;28;20454;-77
2022/09/17 04:17:23;;;;;;;2.30;1.48;;;11.00;81.90;;;;;;4996358;28;20169;-76
2022/09/17 04:19:49;;;;;;;5.90;1.20;;;10.90;82.00;;;;;;4982331;28;20092;-75
2022/09/17 04:22:14;;;;;;;2.40;0.98;;;10.90;82.00;;;;;;4997682;28;20050;-76
2022/09/17 04:24:40;;;;;;;1.77;0.90;;;10.90;82.10;;;;;;4998311;28;20366;-77
2022/09/17 04:27:05;;;;;;;4.32;1.27;;;10.90;82.30;;;;;;5020972;28;20046;-77
2022/09/17 04:29:31;;;;;;;2.92;0.90;;;10.90;82.40;;;;;;5002378;28;20046;-76
2022/09/17 04:31:56;;;;;;;4.47;0.80;;;10.90;82.50;;;;;;4988699;28;20050;-77
2022/09/17 04:34:22;;;;;;;1.17;0.60;;;10.90;82.60;;;;;;5004595;28;20472;-77
2022/09/17 04:36:47;;;;;;;2.00;1.02;;;10.80;82.70;;;;;;5004837;28;20050;-76
2022/09/17 04:39:13;;;;;;;3.28;0.70;;;10.80;82.80;;;;;;4985344;28;20329;-76
2022/09/17 04:41:39;;;;;;;1.48;0.52;;;10.80;83.00;;;;;;4998180;28;20038;-76
2022/09/17 04:44:04;;;;;;;1.30;0.60;;;10.70;83.00;;;;;;4998866;28;20046;-75
2022/09/17 04:46:30;;;;;;;2.22;0.70;;;10.70;83.20;;;;;;5002043;28;20072;-75
2022/09/17 04:48:55;;;;;;;1.50;0.98;;;10.70;83.20;;;;;;5006855;28;20030;-76
2022/09/17 04:51:21;;;;;;;2.50;0.82;;;10.70;83.30;;;;;;5001768;28;20030;-76
2022/09/17 04:53:47;;;;;;;2.47;0.70;;;10.70;83.40;;;;;;4997048;28;20041;-76
2022/09/17 04:56:12;;;;;;;0.80;0.50;;;10.70;83.40;;;;;;4996927;28;20057;-76
2022/09/17 04:58:38;;;;;;;2.65;0.88;;;10.70;83.50;;;;;;4967732;28;20262;-76
2022/09/17 05:01:03;;;;;;;1.20;0.60;;;10.80;83.50;;;;;;4996661;28;20117;-76
2022/09/17 05:03:29;;;;;;;3.65;0.60;;;10.80;83.60;;;;;;4999207;28;20038;-76
2022/09/17 05:05:55;;;;;;;1.02;0.60;;;10.80;83.60;;;;;;5000845;28;20042;-77
2022/09/17 05:08:22;;;;;;;2.30;0.70;;;10.80;83.60;;;;;;4996426;28;20041;-76
2022/09/17 05:10:50;;;;;;;1.17;0.50;;;10.80;83.60;;;;;;5000930;28;20668;-78
2022/09/17 05:13:15;;;;;;;1.92;0.68;;;10.80;83.80;;;;;;4997476;28;20122;-76
2022/09/17 05:15:41;;;;;;;0.75;0.75;;;10.80;83.80;;;;;;4986781;28;20043;-76
2022/09/17 05:18:06;;;;;;;1.20;0.60;;;10.80;83.80;;;;;;4998028;28;20162;-79
2022/09/17 05:20:32;;;;;;;0.60;0.60;;;10.80;83.80;;;;;;4998226;28;20034;-76
2022/09/17 05:22:57;;;;;;;0.50;0.50;;;10.80;83.90;;;;;;4981570;28;20149;-76
2022/09/17 05:25:23;;;;;;;0.95;0.60;;;10.80;83.90;;;;;;4995499;28;20050;-77
2022/09/17 05:27:49;;;;;;;0.60;0.43;;;10.80;83.90;;;;;;4998806;28;20067;-77
2022/09/17 05:30:14;;;;;;;0.90;0.60;;;10.80;84.00;;;;;;4991375;28;20521;-76
2022/09/17 05:32:40;;;;;;;0.50;0.50;;;10.80;84.10;;;;;;4994915;28;20038;-76
2022/09/17 05:35:06;;;;;;;0.52;0.52;;;10.80;84.10;;;;;;4993831;28;20060;-76
2022/09/17 05:37:31;;;;;;;1.08;0.60;;;10.90;84.20;;;;;;4987003;28;20033;-75
2022/09/17 05:39:57;;;;;;;2.83;0.70;;;10.90;84.10;;;;;;4991171;28;20030;-76
2022/09/17 05:42:22;;;;;;;1.52;0.80;;;10.90;84.10;;;;;;4983055;28;20582;-76
2022/09/17 05:44:48;;;;;;;1.25;0.73;;;10.90;84.20;;;;;;4987217;28;20169;-76
2022/09/17 05:47:14;;;;;;;1.60;1.15;;;10.90;84.20;;;;;;4960280;28;20165;-75
2022/09/17 05:49:39;;;;;;;2.45;1.17;;;10.90;84.30;;;;;;4986079;28;20030;-74
2022/09/17 05:52:05;;;;;;;2.25;0.80;;;10.90;84.20;;;;;;4986040;28;20057;-75
2022/09/17 05:54:30;;;;;;;1.10;0.70;;;10.90;84.20;;;;;;4991717;28;20531;-76
2022/09/17 05:56:56;;;;;;;1.75;1.20;;;10.90;84.20;;;;;;4965966;28;20043;-76
2022/09/17 05:59:21;;;;;;;1.02;0.90;;;10.90;84.20;;;;;;5011217;28;22549;-75
2022/09/17 06:01:47;;;;;;;2.83;1.15;;;10.90;84.40;;;;;;4985566;28;20042;-75
2022/09/17 06:04:13;;;;;;;3.78;1.17;;;10.90;84.30;;;;;;4997796;28;20038;-76
2022/09/17 06:06:40;;;;;;;5.55;1.52;;;10.90;84.30;;;;;;5000017;28;20037;-77
2022/09/17 06:09:07;;;;;;;2.78;1.13;;;10.90;84.30;;;;;;4985234;28;20034;-76
2022/09/17 06:11:33;;;;;;;3.13;1.30;;;10.90;84.50;;;;;;5000506;28;20041;-76
2022/09/17 06:13:59;;;;;;;3.97;1.33;;;11.00;84.40;;;;;;5005406;28;20057;-75
2022/09/17 06:16:24;;;;;;;1.40;1.00;;;11.00;84.50;;;;;;4986328;28;20060;-76
2022/09/17 06:18:51;;;;;;;3.42;1.20;;;11.00;84.50;;;;;;4989123;28;20125;-76
2022/09/17 06:21:17;;;;;;;3.50;1.08;;;11.00;84.50;;;;;;4998936;28;20129;-75
2022/09/17 06:23:43;;;;;;;3.05;1.52;;;11.00;84.50;;;;;;5000142;28;20050;-76
2022/09/17 06:26:08;;;;;;;2.28;1.33;;;11.10;84.50;;;;;;4995685;28;20034;-78
2022/09/17 06:28:34;;;;;;;2.83;1.55;;;11.10;84.50;;;;;;4975579;28;20069;-75
2022/09/17 06:31:01;;;;;;;3.13;1.40;;;11.10;84.50;;;;;;4991107;28;20200;-77
2022/09/17 06:33:27;;;;;;;3.08;1.27;;;11.10;84.40;;;;;;4983132;28;20035;-73
2022/09/17 06:35:56;;;;;;;3.30;1.35;;;11.10;84.50;;;;;;4970090;28;20100;-73
2022/09/17 06:38:22;;;;;;;5.05;1.60;;;11.10;84.60;;;;;;4987275;28;20626;-73
2022/09/17 06:40:51;;;;;;;3.17;1.70;;;11.20;84.60;;;;;;4987406;28;20054;-73
2022/09/17 06:43:16;;;;;;;1.75;1.52;;;11.30;84.80;;;;;;4983888;28;20156;-76
2022/09/17 06:45:42;;;;;;;3.25;1.30;;;11.30;84.60;;;;;;4982782;28;20384;-73
2022/09/17 06:48:08;;;;;;;5.13;1.38;;;11.30;84.50;;;;;;4983029;28;20052;-75
2022/09/17 06:50:33;;;;;;;4.72;1.55;;;11.30;84.50;;;;;;4985581;28;20038;-75
2022/09/17 06:52:59;;;;;;;5.85;1.52;;;11.30;84.50;;;;;;4990020;28;20046;-75
2022/09/17 06:55:24;;;;;;;3.33;1.23;;;11.40;84.50;;;;;;4989665;28;20053;-75
2022/09/17 06:57:50;;;;;;;8.23;2.42;;;11.40;84.50;;;;;;4983734;28;20101;-73
2022/09/17 07:00:15;;;;;;;3.75;1.98;;;11.40;84.50;;;;;;4998526;28;20069;-76
2022/09/17 07:02:41;;;;;;;3.83;1.70;;;11.40;84.40;;;;;;4996489;28;20040;-76
2022/09/17 07:05:07;;;;;;;2.95;1.42;;;11.40;84.40;;;;;;4981420;28;20034;-76
2022/09/17 07:07:34;;;;;;;4.50;2.15;;;11.50;84.50;;;;;;4988529;28;20041;-76
2022/09/17 07:10:00;;;;;;;3.97;2.60;;;11.50;84.40;;;;;;4984590;28;20538;-76
2022/09/17 07:12:26;;;;;;;3.13;1.75;;;11.50;84.40;;;;;;4984694;28;20125;-76
2022/09/17 07:14:51;;;;;;;3.33;1.95;;;11.50;84.30;;;;;;4985049;28;20032;-76
2022/09/17 07:17:17;;;;;;;3.92;1.70;;;11.60;84.40;;;;;;4985783;28;20034;-76
2022/09/17 07:19:42;;;;;;;4.18;2.20;;;11.50;84.30;;;;;;4970736;28;20117;-76
2022/09/17 07:22:08;;;;;;;5.28;1.75;;;11.60;84.50;;;;;;4950911;28;20050;-75
2022/09/17 07:24:33;;;;;;;4.32;2.40;;;11.70;84.50;;;;;;4983187;28;20027;-76
2022/09/17 07:26:59;;;;;;;4.18;1.73;;;11.70;84.40;;;;;;4983328;28;20054;-76
2022/09/17 07:29:26;;;;;;;2.95;1.50;;;11.80;84.20;;;;;;4973665;28;20034;-77
2022/09/17 07:31:54;;;;;;;7.15;1.80;;;11.80;84.10;;;;;;4980103;28;20049;-76
2022/09/17 07:34:20;;;;;;;7.28;2.00;;;11.90;84.10;;;;;;4983136;28;20038;-76
2022/09/17 07:36:46;;;;;;;9.32;1.48;;;12.00;84.00;;;;;;4963289;28;20069;-77
2022/09/17 07:39:12;;;;;;;5.13;1.70;;;12.00;83.80;;;;;;4965263;28;20045;-76
2022/09/17 07:41:38;;;;;;;4.95;1.95;;;12.10;83.80;;;;;;4982468;28;20126;-76
2022/09/17 07:44:05;;;;;;;1.98;1.42;;;12.10;83.60;;;;;;4985134;28;20088;-76
2022/09/17 07:46:31;;;;;;;3.25;1.27;;;12.20;83.70;;;;;;4979442;28;20060;-76
2022/09/17 07:48:56;;;;;;;5.65;1.55;;;12.20;83.50;;;;;;4983997;28;20747;-77
2022/09/17 07:51:24;;;;;;;5.00;1.70;;;12.20;83.40;;;;;;4982620;28;20042;-77
2022/09/17 07:53:50;;;;;;;5.38;1.73;;;12.20;83.40;;;;;;4986160;28;20049;-77
2022/09/17 07:56:16;;;;;;;8.05;1.95;;;12.30;83.40;;;;;;4985412;28;20089;-76
2022/09/17 07:58:41;;;;;;;6.00;1.60;;;12.30;83.30;;;;;;4985147;28;20492;-76
2022/09/17 08:01:11;;;;;;;5.18;1.48;;;12.30;83.20;;;;;;4983918;28;20042;-76
2022/09/17 08:03:38;;;;;;;5.70;1.33;;;12.30;83.20;;;;;;4984114;28;20030;-77
2022/09/17 08:06:07;;;;;;;7.18;2.28;;;12.40;83.20;;;;;;4966801;28;20046;-77
2022/09/17 08:08:34;;;;;;;4.03;1.50;;;12.40;83.10;;;;;;4971083;28;20121;-76
2022/09/17 08:11:01;;;;;;;7.35;2.17;;;12.40;83.00;;;;;;4970465;28;20042;-77
2022/09/17 08:13:28;;;;;;;6.60;1.75;;;12.50;83.00;;;;;;4987737;28;20582;-76
2022/09/17 08:16:00;;;;;;;4.95;1.83;;;12.50;82.90;;;;;;4967646;28;20084;-75
2022/09/17 08:18:26;;;;;;;4.18;1.75;;;12.50;82.90;;;;;;4968663;28;20054;-76
2022/09/17 08:20:51;;;;;;;4.93;1.90;;;12.50;82.90;;;;;;4984911;28;20487;-77
2022/09/17 08:23:17;;;;;;;4.47;1.83;;;12.50;83.60;;;;;;4951479;28;20034;-76
2022/09/17 08:25:42;;;;;;;4.25;1.90;;;12.60;82.80;;;;;;4965873;28;20031;-77
2022/09/17 08:28:08;;;;;;;8.35;2.15;;;12.70;82.80;;;;;;4984742;28;20042;-77
2022/09/17 08:30:33;;;;;;;4.60;2.22;;;12.80;82.70;;;;;;4986263;28;20048;-76
2022/09/17 08:32:59;;;;;;;3.42;2.40;;;12.90;82.60;;;;;;4957268;28;20112;-76
2022/09/17 08:35:26;;;;;;;7.50;2.08;;;13.10;82.40;;;;;;4967034;28;20053;-77
2022/09/17 08:37:54;;;;;;;4.72;1.92;;;13.30;82.20;;;;;;4966390;28;20042;-77
2022/09/17 08:40:21;;;;;;;6.30;2.20;;;13.50;81.90;;;;;;4983941;28;20038;-76
2022/09/17 08:42:59;;;;;;;4.95;2.00;;;13.70;81.50;;;;;;4968107;28;20467;-77
2022/09/17 08:45:25;;;;;;;5.68;1.80;;;13.90;81.00;;;;;;4951268;28;20737;-78
2022/09/17 08:47:50;;;;;;;4.28;1.80;;;14.00;80.50;;;;;;4968442;28;20041;-76
2022/09/17 08:50:28;;;;;;;4.43;2.00;;;14.20;79.90;;;;;;4979024;28;20050;-76
2022/09/17 08:53:03;;;;;;;14.18;3.20;;;14.30;79.60;;;;;;4965852;28;20089;-77
2022/09/17 08:55:46;;;;;;;8.60;2.53;;;14.50;79.60;;;;;;4981762;28;20038;-76
2022/09/17 08:58:30;;;;;;;7.40;2.33;;;14.60;78.60;;;;;;4962901;28;20034;-77
2022/09/17 09:01:17;;;;;;;5.78;2.63;;;14.70;78.70;;;;;;4985519;28;20042;-77
2022/09/17 09:04:17;;;;;;;7.68;2.50;;;15.00;78.00;;;;;;4983861;28;20038;-78
2022/09/17 09:06:50;;;;;;;7.35;2.63;;;15.20;77.30;;;;;;4987399;28;20030;-77
2022/09/17 09:09:20;;;;;;;6.45;3.33;;;15.20;76.90;;;;;;4980919;28;20038;-76
2022/09/17 09:11:46;;;;;;;7.72;2.72;;;15.20;76.90;;;;;;4964428;28;20096;-77
2022/09/17 09:14:23;;;;;;;6.95;2.20;;;15.30;76.90;;;;;;4979513;28;20494;-75
2022/09/17 09:16:49;;;;;;;7.25;3.10;;;15.30;76.60;;;;;;4969160;28;20041;-78
2022/09/17 09:19:29;;;;;;;5.07;2.35;;;15.40;76.50;;;;;;4982319;28;20560;-76
2022/09/17 09:22:28;;;;;;;5.20;2.60;;;15.40;76.00;;;;;;4985676;28;20541;-77
2022/09/17 09:25:22;;;;;;;4.75;1.85;;;15.40;75.90;;;;;;4978786;28;20043;-78
2022/09/17 09:28:12;;;;;;;8.80;2.00;;;15.50;75.80;;;;;;4980651;28;20554;-78
2022/09/17 09:30:40;;;;;;;3.83;2.08;;;15.60;75.50;;;;;;4984766;28;20056;-78
2022/09/17 09:33:14;;;;;;;5.18;2.30;;;15.60;76.00;;;;;;4980053;28;20035;-78
2022/09/17 09:35:41;;;;;;;4.13;1.73;;;15.60;75.20;;;;;;4972969;28;20042;-77
2022/09/17 09:38:31;;;;;;;6.53;2.22;;;15.70;75.20;;;;;;4970314;28;20101;-78
2022/09/17 09:41:02;;;;;;;7.32;2.78;;;15.70;75.00;;;;;;4964535;28;20039;-77
2022/09/17 09:43:46;;;;;;;4.68;1.77;;;15.80;75.20;;;;;;4982766;28;20038;-79
2022/09/17 09:46:19;;;;;;;9.00;2.25;;;15.80;75.00;;;;;;4982046;28;20126;-78
2022/09/17 09:49:10;;;;;;;4.43;2.13;;;15.90;75.30;;;;;;4970094;28;20035;-77
2022/09/17 09:51:40;;;;;;;3.88;1.65;;;16.10;75.20;;;;;;4970350;28;20046;-78
2022/09/17 09:54:20;;;;;;;4.65;1.73;;;16.30;74.70;;;;;;4967875;28;20049;-78
2022/09/17 09:56:56;;;;;;;5.10;2.10;;;16.30;74.30;;;;;;4990985;28;20065;-78
2022/09/17 09:59:21;;;;;;;6.85;1.92;;;16.50;74.30;;;;;;4984637;28;20038;-78
2022/09/17 10:01:47;;;;;;;1.80;1.20;;;16.60;74.00;;;;;;4983807;28;20339;-77
2022/09/17 10:04:26;;;;;;;3.67;1.90;;;16.80;73.60;;;;;;4981134;28;20038;-78
2022/09/17 10:06:53;;;;;;;3.75;1.65;;;16.90;72.30;;;;;;4981014;28;20053;-79
2022/09/17 10:09:21;;;;;;;4.05;1.75;;;17.10;72.70;;;;;;4984776;28;20051;-79
2022/09/17 10:12:09;;;;;;;5.93;2.00;;;17.30;72.30;;;;;;4986532;28;20523;-79
2022/09/17 10:14:36;;;;;;;5.70;1.67;;;17.40;71.20;;;;;;4967295;28;20117;-79
2022/09/17 10:17:20;;;;;;;4.28;1.70;;;17.50;71.40;;;;;;4987750;28;20054;-78
2022/09/17 10:20:00;;;;;;;4.18;1.50;;;17.60;70.30;;;;;;4984639;28;20038;-79
2022/09/17 10:22:33;;;;;;;3.97;1.60;;;17.80;70.00;;;;;;4983649;28;20101;-79
2022/09/17 10:24:59;;;;;;;3.63;1.70;;;18.10;69.50;;;;;;4980857;28;20100;-78
2022/09/17 10:27:25;;;;;;;5.88;1.70;;;18.10;69.20;;;;;;4980878;28;20129;-78
2022/09/17 10:29:59;;;;;;;4.10;1.40;;;18.10;68.60;;;;;;4982494;28;20599;-79
2022/09/17 10:32:24;;;;;;;5.25;1.50;;;18.10;68.30;;;;;;4964660;28;20043;-78
2022/09/17 10:34:58;;;;;;;2.42;1.67;;;18.00;68.20;;;;;;4983066;28;20038;-79
2022/09/17 10:37:32;;;;;;;4.97;1.42;;;18.00;68.40;;;;;;4986196;28;20092;-79
2022/09/17 10:39:58;;;;;;;6.70;2.60;;;17.90;68.40;;;;;;4968956;28;20072;-78
2022/09/17 10:42:23;;;;;;;4.22;2.17;;;17.90;68.30;;;;;;4986543;28;20594;-78
2022/09/17 10:44:56;;;;;;;6.00;1.65;;;17.80;68.20;;;;;;4985647;28;20042;-78
2022/09/17 10:47:23;;;;;;;3.00;1.55;;;17.70;67.80;;;;;;4985249;28;20034;-79
2022/09/17 10:49:56;;;;;;;3.65;1.48;;;17.70;68.20;;;;;;4984584;28;20133;-78
2022/09/17 10:52:37;;;;;;;4.90;2.20;;;17.70;68.20;;;;;;4986314;28;20069;-78
2022/09/17 10:55:32;;;;;;;5.82;1.90;;;17.80;67.70;;;;;;4986100;28;20043;-78
2022/09/17 10:58:06;;;;;;;4.57;1.55;;;18.00;67.60;;;;;;4985286;28;20049;-78
2022/09/17 11:01:05;;;;;;;1.92;1.20;;;18.30;67.20;;;;;;4991106;28;20049;-78
2022/09/17 11:03:34;;;;;;;3.40;1.30;;;18.40;66.80;;;;;;4978272;28;20046;-78
2022/09/17 11:06:39;;;;;;;3.65;1.20;;;18.50;66.90;;;;;;4971601;28;20034;-78
2022/09/17 11:09:17;;;;;;;3.03;1.20;;;18.60;65.30;;;;;;4974636;28;20065;-77
2022/09/17 11:11:56;;;;;;;2.95;1.30;;;18.70;66.00;;;;;;4976056;28;20053;-78
2022/09/17 11:14:40;;;;;;;6.53;1.48;;;18.90;65.20;;;;;;4973184;28;20081;-78
2022/09/17 11:17:38;;;;;;;4.53;1.30;;;19.10;64.40;;;;;;4969854;28;20074;-79
2022/09/17 11:20:41;;;;;;;3.88;1.20;;;19.20;63.30;;;;;;4971742;28;20085;-78
2022/09/17 11:23:44;;;;;;;2.95;1.20;;;19.20;63.50;;;;;;4970003;28;20031;-77
2022/09/17 11:26:32;;;;;;;3.83;1.10;;;19.30;63.60;;;;;;4987725;28;20046;-77
2022/09/17 11:29:11;;;;;;;3.97;1.13;;;19.30;63.90;;;;;;4974455;28;20136;-78
2022/09/17 11:31:56;;;;;;;4.28;1.23;;;19.30;62.90;;;;;;4985405;28;20093;-78
2022/09/17 11:34:29;;;;;;;2.42;1.38;;;19.30;63.30;;;;;;4999854;28;20594;-77
2022/09/17 11:37:14;;;;;;;6.57;1.33;;;19.20;63.20;;;;;;4962304;28;20046;-76
2022/09/17 11:40:11;;;;;;;3.58;0.82;;;19.00;63.00;;;;;;4977235;28;20047;-77
2022/09/17 11:42:37;;;;;;;2.67;0.90;;;18.80;62.80;;;;;;4985381;28;20038;-77
2022/09/17 11:45:16;;;;;;;4.57;1.02;;;18.60;63.60;;;;;;5005711;28;20092;-77
2022/09/17 11:47:55;;;;;;;2.92;1.10;;;18.50;64.30;;;;;;4970101;28;20116;-76
2022/09/17 11:50:27;;;;;;;2.80;0.82;;;18.60;65.00;;;;;;4953241;28;20038;-76
2022/09/17 11:53:01;;;;;;;3.45;1.05;;;18.60;65.00;;;;;;4985199;28;20651;-78
2022/09/17 11:55:43;;;;;;;2.95;0.90;;;18.60;65.00;;;;;;4995802;28;20030;-76
2022/09/17 11:58:15;;;;;;;3.33;1.40;;;18.60;65.30;;;;;;4967152;28;20034;-77
2022/09/17 12:00:48;;;;;;;3.58;0.90;;;18.60;65.30;;;;;;4972693;28;20125;-77
2022/09/17 12:03:32;;;;;;;2.05;0.80;;;18.70;65.40;;;;;;4984032;28;20048;-78
2022/09/17 12:06:05;;;;;;;2.10;1.00;;;18.70;65.10;;;;;;4968537;28;20035;-79
2022/09/17 12:08:57;;;;;;;1.67;0.90;;;18.80;65.40;;;;;;4985749;28;20546;-79
2022/09/17 12:11:26;;;;;;;5.82;1.35;;;18.80;65.60;;;;;;4986872;28;20077;-79
2022/09/17 12:13:56;;;;;;;5.07;1.30;;;18.90;65.70;;;;;;4986430;28;20042;-79
2022/09/17 12:16:34;;;;;;;2.85;0.98;;;19.10;65.50;;;;;;4981388;28;20038;-79
2022/09/17 12:19:29;;;;;;;4.03;1.25;;;19.30;65.30;;;;;;4986057;28;20657;-79
2022/09/17 12:22:09;;;;;;;2.83;0.88;;;19.50;65.30;;;;;;4979317;28;20038;-79
2022/09/17 12:24:35;;;;;;;5.22;1.25;;;19.60;64.30;;;;;;4981959;28;20054;-78
2022/09/17 12:27:00;;;;;;;4.47;1.10;;;19.80;64.40;;;;;;4998417;28;20068;-77
2022/09/17 12:29:38;;;;;;;4.07;1.63;;;19.80;63.90;;;;;;4985234;28;20043;-78
2022/09/17 12:32:21;;;;;;;6.82;1.23;;;19.90;63.80;;;;;;4987733;28;20046;-78
2022/09/17 12:34:57;;;;;;;1.23;1.10;;;19.90;63.10;;;;;;4992745;28;20041;-77
2022/09/17 12:37:34;;;;;;;3.65;1.10;;;19.80;63.10;;;;;;4998448;28;20042;-78
2022/09/17 12:40:32;;;;;;;1.65;0.70;;;19.80;63.20;;;;;;4982458;28;20053;-78
2022/09/17 12:43:04;;;;;;;1.92;0.73;;;19.80;62.00;;;;;;4994022;28;20502;-77
2022/09/17 12:45:36;;;;;;;3.95;0.88;;;19.80;62.50;;;;;;4986774;28;20117;-79
2022/09/17 12:48:53;;;;;;;2.28;0.60;;;19.80;62.50;;;;;;4974977;28;20045;-78
2022/09/17 12:51:40;;;;;;;2.10;0.80;;;19.80;61.60;;;;;;4985511;28;20038;-77
2022/09/17 12:54:26;;;;;;;2.85;0.90;;;20.00;61.40;;;;;;4988496;28;20092;-77
2022/09/17 12:56:59;;;;;;;2.80;0.70;;;20.10;61.00;;;;;;4992366;28;20645;-77
2022/09/17 12:59:29;;;;;;;3.65;0.98;;;20.30;61.10;;;;;;4986001;28;20038;-77
2022/09/17 13:02:16;;;;;;;3.95;0.80;;;20.30;60.80;;;;;;4987941;28;20047;-77
2022/09/17 13:05:05;;;;;;;2.60;0.88;;;20.30;60.60;;;;;;4985999;28;20103;-77
2022/09/17 13:08:08;;;;;;;3.95;0.68;;;20.20;59.40;;;;;;4972486;28;20046;-78
2022/09/17 13:11:07;;;;;;;2.90;0.70;;;20.30;58.80;;;;;;4989395;28;20491;-77
2022/09/17 13:13:52;;;;;;;8.30;3.40;;;20.20;58.70;;;;;;5001585;28;20038;-77